Akron Fulton International Airport
KAKR : now visible

Airfield :











YOU CAN JOIN US ON...

 
LOGIN :

Register | Disclaimer

   EN    FR    IT 

 









Legend :    VFR   Marginal VFR   IFR   Intensive IFR   Very Intensive IFR
Visi :
Ceiling :
>= 8 km
>= 3000ft
5 to 8 km
1000 to 3000 ft
1500m to 5 km
500 to 1000 ft
800 to 1500m
200 to 500 ft
< 800m
< 200 ft
Symbols :   Thunderstorms  Fog  Heavy snow  Heavy precipitations  Wind > 20 kt






- Airport Elevation : 1067 ft


KAKR - Akron Fulton International

CURRENT METAR :
  • 100700Z AUTO 28011KT 2SM -SN FEW012 BKN036 OVC044 02/M01 A2966 RMK AO2 VIS 1V3 P0000 T00171011

EXPIRED METARs :
  • 100651Z AUTO 28012G19KT 1 3/4SM -SN FEW012 BKN028 OVC040 02/M02 A2966 RMK AO2 P0000
  • 100625Z AUTO 26012G18KT 3SM -SN SCT023 BKN030 OVC060 02/M02 A2965 RMK AO2 P0000 T00171017
  • 100607Z AUTO 26014KT 3SM -SN BKN021 BKN029 OVC075 02/M02 A2966 RMK AO2 P0000 T00171017
  • 100554Z AUTO 27013G20KT 1 1/2SM -SN BKN016 BKN021 OVC028 02/M02 A2966 RMK AO2 RAB02E04B22E32SNB04E19B41 SLP048 P0000 60000 T00171017 10061 20017 53002
  • 100529Z AUTO 29009G18KT 8SM -RA FEW017 BKN028 OVC036 04/M03 A2965 RMK AO2 RAB02E04B22SNB04E19 P0000 T00391028
  • 100454Z AUTO 30013G21KT 10SM FEW031 BKN050 BKN055 04/M04 A2964 RMK AO2 SLP042 T00391039 401560028

TAF N/A



MET'MAP, your aeronautical weather chart ! - Copyright ORBIFLY December 2007 - Disclaimer

ORBIFLY MET'MAP TEAM :

Programming & Development : Alexandra Zaïnal
Concept & original design : Baudouin d'Aumeries
Assistance for programming : Marc-Olivier Méhu
Technical & hardware support : Manuel Goepfert

Contact : metmap@orbifly.com




SOURCES & CREDITS :

   NOAA       Earth
Advisory